sensor_id;sensor_type;location;lat;lon;timestamp;P1;durP1;ratioP1;P2;durP2;ratioP2
3735;SDS011;1883;48.202;16.310;2023-08-01T00:02:15;9.90;;;3.80;;
3735;SDS011;1883;48.202;16.310;2023-08-01T00:04:57;13.30;;;4.50;;
3735;SDS011;1883;48.202;16.310;2023-08-01T00:07:26;12.20;;;3.53;;
3735;SDS011;1883;48.202;16.310;2023-08-01T00:09:57;10.23;;;3.50;;
3735;SDS011;1883;48.202;16.310;2023-08-01T00:12:24;11.50;;;4.27;;
3735;SDS011;1883;48.202;16.310;2023-08-01T00:14:51;11.20;;;4.20;;
3735;SDS011;1883;48.202;16.310;2023-08-01T00:17:19;16.77;;;6.90;;
3735;SDS011;1883;48.202;16.310;2023-08-01T00:19:50;16.70;;;6.70;;
3735;SDS011;1883;48.202;16.310;2023-08-01T00:22:32;11.90;;;4.13;;
3735;SDS011;1883;48.202;16.310;2023-08-01T00:28:30;8.77;;;3.17;;
3735;SDS011;1883;48.202;16.310;2023-08-01T00:31:13;9.90;;;3.80;;
3735;SDS011;1883;48.202;16.310;2023-08-01T00:33:44;14.70;;;4.57;;
3735;SDS011;1883;48.202;16.310;2023-08-01T00:36:12;19.60;;;4.40;;
3735;SDS011;1883;48.202;16.310;2023-08-01T00:38:43;10.93;;;3.90;;
3735;SDS011;1883;48.202;16.310;2023-08-01T00:41:45;12.43;;;3.70;;
3735;SDS011;1883;48.202;16.310;2023-08-01T00:44:34;11.13;;;4.23;;
3735;SDS011;1883;48.202;16.310;2023-08-01T00:47:16;10.13;;;3.80;;
3735;SDS011;1883;48.202;16.310;2023-08-01T00:50:05;11.50;;;3.90;;
3735;SDS011;1883;48.202;16.310;2023-08-01T00:53:12;16.87;;;3.97;;
3735;SDS011;1883;48.202;16.310;2023-08-01T00:55:52;15.93;;;4.73;;
3735;SDS011;1883;48.202;16.310;2023-08-01T00:58:34;13.57;;;4.07;;
3735;SDS011;1883;48.202;16.310;2023-08-01T01:07:03;16.03;;;4.17;;
3735;SDS011;1883;48.202;16.310;2023-08-01T01:09:33;11.97;;;3.70;;
3735;SDS011;1883;48.202;16.310;2023-08-01T01:12:15;13.90;;;4.40;;
3735;SDS011;1883;48.202;16.310;2023-08-01T01:14:42;9.67;;;3.63;;
3735;SDS011;1883;48.202;16.310;2023-08-01T01:17:10;14.17;;;4.37;;
3735;SDS011;1883;48.202;16.310;2023-08-01T01:19:40;12.50;;;4.00;;
3735;SDS011;1883;48.202;16.310;2023-08-01T01:22:09;12.93;;;3.93;;
3735;SDS011;1883;48.202;16.310;2023-08-01T01:24:37;15.47;;;3.40;;
3735;SDS011;1883;48.202;16.310;2023-08-01T01:27:06;12.03;;;4.07;;
3735;SDS011;1883;48.202;16.310;2023-08-01T01:29:34;11.87;;;4.20;;
3735;SDS011;1883;48.202;16.310;2023-08-01T01:32:02;10.43;;;3.73;;
3735;SDS011;1883;48.202;16.310;2023-08-01T01:34:31;10.83;;;4.13;;
3735;SDS011;1883;48.202;16.310;2023-08-01T01:36:58;18.20;;;4.47;;
3735;SDS011;1883;48.202;16.310;2023-08-01T01:39:26;10.30;;;4.00;;
3735;SDS011;1883;48.202;16.310;2023-08-01T01:41:53;13.27;;;4.03;;
3735;SDS011;1883;48.202;16.310;2023-08-01T01:44:20;13.80;;;4.20;;
3735;SDS011;1883;48.202;16.310;2023-08-01T01:46:47;8.13;;;3.73;;
3735;SDS011;1883;48.202;16.310;2023-08-01T01:49:14;12.03;;;3.97;;
3735;SDS011;1883;48.202;16.310;2023-08-01T01:51:41;11.87;;;3.60;;
3735;SDS011;1883;48.202;16.310;2023-08-01T01:54:08;10.90;;;3.80;;
3735;SDS011;1883;48.202;16.310;2023-08-01T01:56:36;10.87;;;3.87;;
3735;SDS011;1883;48.202;16.310;2023-08-01T01:59:03;10.73;;;3.87;;
3735;SDS011;1883;48.202;16.310;2023-08-01T02:01:30;9.67;;;3.67;;
3735;SDS011;1883;48.202;16.310;2023-08-01T02:03:57;20.10;;;3.97;;
3735;SDS011;1883;48.202;16.310;2023-08-01T02:06:24;10.70;;;3.87;;
3735;SDS011;1883;48.202;16.310;2023-08-01T02:08:51;9.70;;;5.20;;
3735;SDS011;1883;48.202;16.310;2023-08-01T02:11:26;11.87;;;3.63;;
3735;SDS011;1883;48.202;16.310;2023-08-01T02:13:55;8.13;;;3.30;;
3735;SDS011;1883;48.202;16.310;2023-08-01T02:16:22;10.40;;;3.90;;
3735;SDS011;1883;48.202;16.310;2023-08-01T02:18:49;15.73;;;3.73;;
3735;SDS011;1883;48.202;16.310;2023-08-01T02:21:16;7.53;;;3.30;;
3735;SDS011;1883;48.202;16.310;2023-08-01T02:23:43;18.00;;;3.73;;
3735;SDS011;1883;48.202;16.310;2023-08-01T02:26:10;8.17;;;3.37;;
3735;SDS011;1883;48.202;16.310;2023-08-01T02:28:36;13.43;;;3.53;;
3735;SDS011;1883;48.202;16.310;2023-08-01T02:31:05;8.33;;;3.23;;
3735;SDS011;1883;48.202;16.310;2023-08-01T02:33:31;21.67;;;3.30;;
3735;SDS011;1883;48.202;16.310;2023-08-01T02:35:59;9.47;;;3.90;;
3735;SDS011;1883;48.202;16.310;2023-08-01T02:38:25;14.77;;;4.00;;
3735;SDS011;1883;48.202;16.310;2023-08-01T02:40:52;11.00;;;3.33;;
3735;SDS011;1883;48.202;16.310;2023-08-01T02:43:19;25.33;;;4.30;;
3735;SDS011;1883;48.202;16.310;2023-08-01T02:45:46;18.03;;;3.37;;
3735;SDS011;1883;48.202;16.310;2023-08-01T02:48:15;8.23;;;3.40;;
3735;SDS011;1883;48.202;16.310;2023-08-01T02:50:42;7.30;;;2.90;;
3735;SDS011;1883;48.202;16.310;2023-08-01T02:53:09;11.03;;;3.40;;
3735;SDS011;1883;48.202;16.310;2023-08-01T02:55:36;11.30;;;3.53;;
3735;SDS011;1883;48.202;16.310;2023-08-01T02:58:03;13.10;;;2.93;;
3735;SDS011;1883;48.202;16.310;2023-08-01T03:00:30;12.27;;;3.40;;
3735;SDS011;1883;48.202;16.310;2023-08-01T03:02:57;9.30;;;3.10;;
3735;SDS011;1883;48.202;16.310;2023-08-01T03:05:26;9.57;;;3.50;;
3735;SDS011;1883;48.202;16.310;2023-08-01T03:07:53;9.83;;;3.50;;
3735;SDS011;1883;48.202;16.310;2023-08-01T03:10:20;11.20;;;3.60;;
3735;SDS011;1883;48.202;16.310;2023-08-01T03:12:47;11.90;;;3.50;;
3735;SDS011;1883;48.202;16.310;2023-08-01T03:15:13;9.60;;;3.47;;
3735;SDS011;1883;48.202;16.310;2023-08-01T03:17:40;14.07;;;3.33;;
3735;SDS011;1883;48.202;16.310;2023-08-01T03:20:07;10.80;;;4.00;;
3735;SDS011;1883;48.202;16.310;2023-08-01T03:22:37;11.00;;;3.70;;
3735;SDS011;1883;48.202;16.310;2023-08-01T03:25:05;10.27;;;3.60;;
3735;SDS011;1883;48.202;16.310;2023-08-01T03:27:33;12.27;;;3.13;;
3735;SDS011;1883;48.202;16.310;2023-08-01T03:30:00;10.57;;;4.10;;
3735;SDS011;1883;48.202;16.310;2023-08-01T03:32:27;10.13;;;3.50;;
3735;SDS011;1883;48.202;16.310;2023-08-01T03:34:54;20.23;;;3.77;;
3735;SDS011;1883;48.202;16.310;2023-08-01T03:37:21;12.33;;;3.70;;
3735;SDS011;1883;48.202;16.310;2023-08-01T03:39:49;8.50;;;3.03;;
3735;SDS011;1883;48.202;16.310;2023-08-01T03:42:16;12.40;;;3.27;;
3735;SDS011;1883;48.202;16.310;2023-08-01T03:44:43;17.10;;;3.53;;
3735;SDS011;1883;48.202;16.310;2023-08-01T03:47:10;8.60;;;3.80;;
3735;SDS011;1883;48.202;16.310;2023-08-01T03:49:37;10.20;;;3.30;;
3735;SDS011;1883;48.202;16.310;2023-08-01T03:52:05;8.97;;;3.10;;
3735;SDS011;1883;48.202;16.310;2023-08-01T03:54:32;12.00;;;3.80;;
3735;SDS011;1883;48.202;16.310;2023-08-01T03:57:00;10.60;;;3.90;;
3735;SDS011;1883;48.202;16.310;2023-08-01T03:59:34;8.57;;;3.00;;
3735;SDS011;1883;48.202;16.310;2023-08-01T04:02:08;7.43;;;3.07;;
3735;SDS011;1883;48.202;16.310;2023-08-01T04:04:39;10.90;;;3.73;;
3735;SDS011;1883;48.202;16.310;2023-08-01T04:07:07;11.23;;;3.90;;
3735;SDS011;1883;48.202;16.310;2023-08-01T04:09:48;16.90;;;3.90;;
3735;SDS011;1883;48.202;16.310;2023-08-01T04:12:34;11.50;;;4.50;;
3735;SDS011;1883;48.202;16.310;2023-08-01T04:15:03;10.50;;;3.83;;
3735;SDS011;1883;48.202;16.310;2023-08-01T04:17:31;12.13;;;3.80;;
3735;SDS011;1883;48.202;16.310;2023-08-01T04:19:59;15.17;;;5.00;;
3735;SDS011;1883;48.202;16.310;2023-08-01T04:22:26;10.97;;;4.30;;
3735;SDS011;1883;48.202;16.310;2023-08-01T04:24:53;11.53;;;4.43;;
3735;SDS011;1883;48.202;16.310;2023-08-01T04:27:21;12.90;;;3.90;;
3735;SDS011;1883;48.202;16.310;2023-08-01T04:29:51;16.23;;;4.43;;
3735;SDS011;1883;48.202;16.310;2023-08-01T04:32:19;12.47;;;4.40;;
3735;SDS011;1883;48.202;16.310;2023-08-01T04:34:47;13.30;;;4.60;;
3735;SDS011;1883;48.202;16.310;2023-08-01T04:37:28;10.83;;;4.13;;
3735;SDS011;1883;48.202;16.310;2023-08-01T04:39:56;13.13;;;4.63;;
3735;SDS011;1883;48.202;16.310;2023-08-01T04:43:02;10.30;;;4.37;;
3735;SDS011;1883;48.202;16.310;2023-08-01T04:45:39;14.87;;;4.40;;
3735;SDS011;1883;48.202;16.310;2023-08-01T04:48:21;14.20;;;4.43;;
3735;SDS011;1883;48.202;16.310;2023-08-01T04:50:51;12.60;;;4.40;;
3735;SDS011;1883;48.202;16.310;2023-08-01T04:53:31;11.37;;;4.20;;
3735;SDS011;1883;48.202;16.310;2023-08-01T04:55:59;21.67;;;4.80;;
3735;SDS011;1883;48.202;16.310;2023-08-01T04:58:27;29.50;;;5.00;;
3735;SDS011;1883;48.202;16.310;2023-08-01T05:01:09;22.03;;;5.80;;
3735;SDS011;1883;48.202;16.310;2023-08-01T05:03:42;14.80;;;5.63;;
3735;SDS011;1883;48.202;16.310;2023-08-01T05:06:09;20.53;;;5.60;;
3735;SDS011;1883;48.202;16.310;2023-08-01T05:08:39;14.00;;;5.80;;
3735;SDS011;1883;48.202;16.310;2023-08-01T05:11:06;21.90;;;7.00;;
3735;SDS011;1883;48.202;16.310;2023-08-01T05:13:39;18.30;;;6.53;;
3735;SDS011;1883;48.202;16.310;2023-08-01T05:18:55;16.43;;;6.60;;
3735;SDS011;1883;48.202;16.310;2023-08-01T05:21:40;18.70;;;5.53;;
3735;SDS011;1883;48.202;16.310;2023-08-01T05:24:30;31.43;;;7.10;;
3735;SDS011;1883;48.202;16.310;2023-08-01T05:27:05;21.63;;;6.53;;
3735;SDS011;1883;48.202;16.310;2023-08-01T05:29:47;20.40;;;6.80;;
3735;SDS011;1883;48.202;16.310;2023-08-01T05:32:24;17.63;;;7.20;;
3735;SDS011;1883;48.202;16.310;2023-08-01T05:35:06;20.30;;;6.60;;
3735;SDS011;1883;48.202;16.310;2023-08-01T05:37:50;20.87;;;6.63;;
3735;SDS011;1883;48.202;16.310;2023-08-01T05:40:34;20.00;;;7.40;;
3735;SDS011;1883;48.202;16.310;2023-08-01T05:43:05;26.37;;;6.20;;
3735;SDS011;1883;48.202;16.310;2023-08-01T05:45:48;15.70;;;6.10;;
3735;SDS011;1883;48.202;16.310;2023-08-01T05:48:17;16.17;;;6.37;;
3735;SDS011;1883;48.202;16.310;2023-08-01T05:50:59;23.60;;;6.80;;
3735;SDS011;1883;48.202;16.310;2023-08-01T05:53:40;24.37;;;7.00;;
3735;SDS011;1883;48.202;16.310;2023-08-01T05:56:24;26.00;;;5.33;;
3735;SDS011;1883;48.202;16.310;2023-08-01T05:58:53;25.80;;;6.03;;
3735;SDS011;1883;48.202;16.310;2023-08-01T06:01:35;14.17;;;4.57;;
3735;SDS011;1883;48.202;16.310;2023-08-01T06:07:19;12.50;;;4.80;;
3735;SDS011;1883;48.202;16.310;2023-08-01T06:10:12;15.50;;;4.90;;
3735;SDS011;1883;48.202;16.310;2023-08-01T06:12:57;15.83;;;4.80;;
3735;SDS011;1883;48.202;16.310;2023-08-01T06:15:38;14.93;;;5.20;;
3735;SDS011;1883;48.202;16.310;2023-08-01T06:18:49;29.37;;;9.70;;
3735;SDS011;1883;48.202;16.310;2023-08-01T06:24:44;35.40;;;9.00;;
3735;SDS011;1883;48.202;16.310;2023-08-01T06:27:36;24.00;;;6.97;;
3735;SDS011;1883;48.202;16.310;2023-08-01T06:30:17;30.80;;;5.90;;
3735;SDS011;1883;48.202;16.310;2023-08-01T06:33:07;14.80;;;5.60;;
3735;SDS011;1883;48.202;16.310;2023-08-01T06:36:35;18.43;;;5.20;;
3735;SDS011;1883;48.202;16.310;2023-08-01T06:39:13;12.00;;;5.50;;
3735;SDS011;1883;48.202;16.310;2023-08-01T09:09:41;20.33;;;5.07;;
3735;SDS011;1883;48.202;16.310;2023-08-01T09:12:28;19.60;;;4.90;;
3735;SDS011;1883;48.202;16.310;2023-08-01T09:15:14;10.33;;;3.60;;
3735;SDS011;1883;48.202;16.310;2023-08-01T09:17:58;16.00;;;4.53;;
3735;SDS011;1883;48.202;16.310;2023-08-01T09:20:51;10.47;;;4.80;;
3735;SDS011;1883;48.202;16.310;2023-08-01T11:32:34;31.57;;;11.30;;
3735;SDS011;1883;48.202;16.310;2023-08-01T11:35:22;30.73;;;10.37;;
3735;SDS011;1883;48.202;16.310;2023-08-01T11:38:08;22.67;;;10.77;;
3735;SDS011;1883;48.202;16.310;2023-08-01T11:41:12;30.67;;;12.03;;
3735;SDS011;1883;48.202;16.310;2023-08-01T11:43:49;55.73;;;12.60;;
3735;SDS011;1883;48.202;16.310;2023-08-01T11:47:01;22.63;;;11.03;;
3735;SDS011;1883;48.202;16.310;2023-08-01T11:58:51;21.53;;;8.90;;
3735;SDS011;1883;48.202;16.310;2023-08-01T12:01:27;32.17;;;11.33;;
3735;SDS011;1883;48.202;16.310;2023-08-01T12:04:28;21.00;;;8.10;;
3735;SDS011;1883;48.202;16.310;2023-08-01T16:53:28;31.67;;;13.47;;
3735;SDS011;1883;48.202;16.310;2023-08-01T22:25:33;9.10;;;3.67;;
3735;SDS011;1883;48.202;16.310;2023-08-01T22:28:21;9.47;;;4.00;;
3735;SDS011;1883;48.202;16.310;2023-08-01T22:31:29;8.30;;;3.90;;
3735;SDS011;1883;48.202;16.310;2023-08-01T22:34:10;10.20;;;4.00;;
3735;SDS011;1883;48.202;16.310;2023-08-01T22:36:58;14.60;;;5.20;;
3735;SDS011;1883;48.202;16.310;2023-08-01T22:39:52;12.03;;;4.87;;
3735;SDS011;1883;48.202;16.310;2023-08-01T23:05:23;10.93;;;4.33;;
3735;SDS011;1883;48.202;16.310;2023-08-01T23:10:42;10.73;;;3.73;;
3735;SDS011;1883;48.202;16.310;2023-08-01T23:13:46;11.33;;;3.80;;
3735;SDS011;1883;48.202;16.310;2023-08-01T23:16:47;9.63;;;3.53;;
